Time;durP1;ratioP1;P1;durP2;ratioP2;P2;SDS_P1;SDS_P2;PMS_P1;PMS_P2;Temp;Humidity;BMP_temperature;BMP_pressure;BME280_temperature;BME280_humidity;BME280_pressure;Samples;Min_cycle;Max_cycle;Signal;HPM_P1;HPM_P2
2022/05/28 00:01:34;;;;;;;;;10.75;9.25;;;;;;;;5086575;27;51506;-50
2022/05/28 00:04:18;;;;;;;;;13.50;12.00;;;;;;;;5102557;27;51189;-49
2022/05/28 00:07:03;;;;;;;;;15.25;12.50;;;;;;;;5102392;27;51066;-51
2022/05/28 00:09:47;;;;;;;;;16.00;12.00;;;;;;;;5102391;27;50991;-50
2022/05/28 00:12:32;;;;;;;;;10.00;10.00;;;;;;;;5086634;27;51371;-50
2022/05/28 00:15:16;;;;;;;;;11.00;11.00;;;;;;;;5102355;27;51215;-53
2022/05/28 00:18:01;;;;;;;;;18.00;13.75;;;;;;;;5102389;27;51337;-48
2022/05/28 00:20:46;;;;;;;;;16.50;15.25;;;;;;;;5101779;27;50986;-50
2022/05/28 00:23:30;;;;;;;;;20.25;17.50;;;;;;;;5085404;27;51027;-49
2022/05/28 00:26:15;;;;;;;;;26.25;20.50;;;;;;;;5101886;27;51526;-47
2022/05/28 00:28:59;;;;;;;;;17.50;16.00;;;;;;;;5101575;27;51176;-49
2022/05/28 00:31:43;;;;;;;;;16.25;15.50;;;;;;;;5101988;27;51103;-50
2022/05/28 00:34:29;;;;;;;;;21.50;14.50;;;;;;;;5102275;27;51017;-48
2022/05/28 00:37:13;;;;;;;;;17.00;15.50;;;;;;;;5101622;27;51242;-48
2022/05/28 00:40:00;;;;;;;;;15.75;12.75;;;;;;;;5101782;27;51105;-47
2022/05/28 00:42:44;;;;;;;;;16.25;15.00;;;;;;;;5101633;27;51420;-50
2022/05/28 00:45:30;;;;;;;;;19.50;14.50;;;;;;;;5101183;27;51119;-47
2022/05/28 00:48:17;;;;;;;;;20.75;20.00;;;;;;;;5101624;27;51084;-50
2022/05/28 00:51:06;;;;;;;;;22.75;20.25;;;;;;;;5101198;27;51590;-49
2022/05/28 00:53:50;;;;;;;;;23.75;19.50;;;;;;;;5101382;27;51044;-50
2022/05/28 00:56:36;;;;;;;;;22.75;17.75;;;;;;;;5101251;27;51070;-48
2022/05/28 00:59:20;;;;;;;;;24.50;21.75;;;;;;;;5101360;27;51072;-54
2022/05/28 01:02:17;;;;;;;;;20.50;18.75;;;;;;;;5099573;27;51493;-54
2022/05/28 01:05:07;;;;;;;;;21.00;19.75;;;;;;;;5101430;27;51101;-53
2022/05/28 01:08:12;;;;;;;;;15.50;14.75;;;;;;;;5101512;27;51328;-52
2022/05/28 01:11:14;;;;;;;;;16.75;15.50;;;;;;;;5097495;27;51047;-51
2022/05/28 01:14:05;;;;;;;;;24.00;20.00;;;;;;;;5101703;27;51074;-50
2022/05/28 01:16:53;;;;;;;;;27.75;24.00;;;;;;;;5100537;27;51579;-48
2022/05/28 01:19:52;;;;;;;;;25.25;23.75;;;;;;;;5100476;27;51199;-53
2022/05/28 01:22:55;;;;;;;;;36.50;29.25;;;;;;;;5100842;27;51121;-49
2022/05/28 01:25:45;;;;;;;;;36.00;31.25;;;;;;;;5100957;27;51080;-54
2022/05/28 01:28:33;;;;;;;;;30.75;26.75;;;;;;;;5100554;27;51524;-50
2022/05/28 01:31:18;;;;;;;;;29.75;25.75;;;;;;;;5100766;27;51059;-54
2022/05/28 01:34:03;;;;;;;;;24.75;22.00;;;;;;;;5100525;27;51573;-47
2022/05/28 01:36:48;;;;;;;;;19.50;19.50;;;;;;;;5084737;27;51038;-50
2022/05/28 01:39:33;;;;;;;;;19.75;18.50;;;;;;;;5100130;27;51148;-49
2022/05/28 01:42:18;;;;;;;;;17.50;17.50;;;;;;;;5099798;27;51551;-50
2022/05/28 01:45:03;;;;;;;;;19.25;16.00;;;;;;;;5100142;27;51053;-47
2022/05/28 01:47:49;;;;;;;;;22.75;17.00;;;;;;;;5100295;27;51211;-49
2022/05/28 01:50:39;;;;;;;;;15.75;13.50;;;;;;;;5100507;27;51015;-47
2022/05/28 01:56:28;;;;;;;;;13.25;13.25;;;;;;;;5100534;27;51056;-52
2022/05/28 01:59:18;;;;;;;;;13.00;13.00;;;;;;;;5100316;27;51523;-52
2022/05/28 02:02:04;;;;;;;;;15.75;14.25;;;;;;;;5099626;27;51091;-50
2022/05/28 02:04:49;;;;;;;;;17.50;15.00;;;;;;;;5093959;27;51212;-51
2022/05/28 02:07:33;;;;;;;;;22.00;19.75;;;;;;;;5088816;27;51634;-50
2022/05/28 02:10:20;;;;;;;;;25.25;22.00;;;;;;;;5079433;27;51160;-49
2022/05/28 02:13:25;;;;;;;;;22.50;18.75;;;;;;;;5079447;27;51131;-49
2022/05/28 02:16:12;;;;;;;;;21.75;19.00;;;;;;;;5099836;27;51694;-49
2022/05/28 02:18:58;;;;;;;;;25.50;19.50;;;;;;;;5100003;27;51577;-51
2022/05/28 02:21:44;;;;;;;;;19.25;17.75;;;;;;;;5099498;27;51116;-47
2022/05/28 02:24:41;;;;;;;;;25.00;22.25;;;;;;;;5099504;27;51530;-47
2022/05/28 02:27:26;;;;;;;;;25.25;18.75;;;;;;;;5099528;27;51143;-51
2022/05/28 02:30:11;;;;;;;;;21.00;17.50;;;;;;;;5099881;27;51001;-51
2022/05/28 02:33:00;;;;;;;;;17.50;16.00;;;;;;;;5094282;27;51367;-50
2022/05/28 02:35:44;;;;;;;;;24.25;17.75;;;;;;;;5099779;27;51082;-52
2022/05/28 02:38:30;;;;;;;;;22.50;19.00;;;;;;;;5100069;27;51456;-51
2022/05/28 02:41:14;;;;;;;;;21.75;18.50;;;;;;;;5100164;27;51156;-50
2022/05/28 02:43:58;;;;;;;;;21.25;21.00;;;;;;;;5099879;27;51478;-52
2022/05/28 02:46:43;;;;;;;;;23.25;18.25;;;;;;;;5082036;27;51134;-53
2022/05/28 02:49:27;;;;;;;;;28.50;19.25;;;;;;;;5079458;27;50963;-49
2022/05/28 02:52:11;;;;;;;;;20.75;19.50;;;;;;;;5079195;27;51007;-48
2022/05/28 02:54:56;;;;;;;;;20.25;17.00;;;;;;;;5079348;27;51344;-49
2022/05/28 02:57:40;;;;;;;;;19.25;17.50;;;;;;;;5096026;27;51522;-51
2022/05/28 03:00:25;;;;;;;;;20.75;15.25;;;;;;;;5099840;27;51046;-50
2022/05/28 03:03:09;;;;;;;;;11.25;9.75;;;;;;;;5098994;27;51120;-52
2022/05/28 03:05:55;;;;;;;;;10.00;9.75;;;;;;;;5100068;27;51248;-48
2022/05/28 03:08:39;;;;;;;;;17.75;17.00;;;;;;;;5099628;27;51124;-52
2022/05/28 03:11:23;;;;;;;;;18.25;16.75;;;;;;;;5099430;27;51767;-52
2022/05/28 03:14:08;;;;;;;;;13.75;7.25;;;;;;;;5099486;27;51054;-49
2022/05/28 03:16:52;;;;;;;;;8.50;6.75;;;;;;;;5099533;27;51028;-49
2022/05/28 03:19:37;;;;;;;;;7.75;5.00;;;;;;;;5099957;27;51205;-52
2022/05/28 03:22:21;;;;;;;;;5.25;4.00;;;;;;;;5099260;27;51067;-48
2022/05/28 03:25:06;;;;;;;;;9.50;3.00;;;;;;;;5102195;27;51498;-52
2022/05/28 03:27:50;;;;;;;;;9.75;9.00;;;;;;;;5103172;27;51109;-53
2022/05/28 03:30:34;;;;;;;;;23.00;16.25;;;;;;;;5103247;27;51117;-53
2022/05/28 03:33:19;;;;;;;;;22.00;18.25;;;;;;;;5102913;27;51473;-53
2022/05/28 03:36:04;;;;;;;;;44.00;34.50;;;;;;;;5102751;27;51176;-50
2022/05/28 03:38:48;;;;;;;;;58.75;44.75;;;;;;;;5102974;27;51479;-52
2022/05/28 03:41:33;;;;;;;;;45.50;37.25;;;;;;;;5087190;27;50994;-53
2022/05/28 03:44:18;;;;;;;;;47.50;38.50;;;;;;;;5103085;27;51185;-54
2022/05/28 03:47:03;;;;;;;;;34.75;28.50;;;;;;;;5102724;27;51490;-51
2022/05/28 03:49:47;;;;;;;;;23.25;18.25;;;;;;;;5102692;27;51600;-51
2022/05/28 03:52:32;;;;;;;;;23.00;16.75;;;;;;;;5102483;27;51117;-54
2022/05/28 03:55:16;;;;;;;;;20.00;18.50;;;;;;;;5102243;27;51058;-53
2022/05/28 03:58:00;;;;;;;;;35.75;29.75;;;;;;;;5095048;27;51074;-54
2022/05/28 04:00:45;;;;;;;;;28.50;23.00;;;;;;;;5101988;27;51293;-47
2022/05/28 04:03:30;;;;;;;;;36.00;29.00;;;;;;;;5102449;27;51110;-48
2022/05/28 04:06:14;;;;;;;;;20.75;18.50;;;;;;;;5102048;27;51284;-50
2022/05/28 04:08:58;;;;;;;;;37.75;29.75;;;;;;;;5102372;27;51137;-49
2022/05/28 04:11:43;;;;;;;;;44.25;36.75;;;;;;;;5101925;27;51615;-48
2022/05/28 04:14:27;;;;;;;;;42.25;34.25;;;;;;;;5102460;27;51101;-49
2022/05/28 04:17:12;;;;;;;;;60.25;48.00;;;;;;;;5102010;27;51021;-50
2022/05/28 04:19:56;;;;;;;;;52.75;40.75;;;;;;;;5102159;27;51001;-52
2022/05/28 04:22:40;;;;;;;;;50.50;37.25;;;;;;;;5101806;27;51582;-50
2022/05/28 04:25:25;;;;;;;;;45.25;34.25;;;;;;;;5101374;27;51216;-50
2022/05/28 04:28:10;;;;;;;;;41.50;32.75;;;;;;;;5101161;27;51610;-52
2022/05/28 04:30:54;;;;;;;;;48.75;37.00;;;;;;;;5098486;27;51433;-51
2022/05/28 04:33:38;;;;;;;;;44.75;35.75;;;;;;;;5100660;27;51143;-52
2022/05/28 04:36:24;;;;;;;;;40.50;29.75;;;;;;;;5101459;27;51199;-53
2022/05/28 04:39:08;;;;;;;;;34.75;30.25;;;;;;;;5091612;27;51163;-49
2022/05/28 04:41:52;;;;;;;;;30.00;22.75;;;;;;;;5101167;27;51190;-53
2022/05/28 04:44:37;;;;;;;;;31.50;27.25;;;;;;;;5101802;27;51098;-50
2022/05/28 04:47:21;;;;;;;;;33.25;26.75;;;;;;;;5100932;27;51279;-51
2022/05/28 04:50:06;;;;;;;;;33.75;29.00;;;;;;;;5096730;27;51170;-52
2022/05/28 04:52:50;;;;;;;;;34.50;30.50;;;;;;;;5095526;27;51067;-54
2022/05/28 04:55:34;;;;;;;;;36.50;32.00;;;;;;;;5101068;27;51068;-50
2022/05/28 04:58:19;;;;;;;;;28.00;24.75;;;;;;;;5101426;27;51255;-51
2022/05/28 05:01:03;;;;;;;;;33.00;30.00;;;;;;;;5101101;27;51540;-50
2022/05/28 05:03:47;;;;;;;;;32.50;28.00;;;;;;;;5099787;27;51600;-51
2022/05/28 05:06:32;;;;;;;;;36.00;31.50;;;;;;;;5100617;27;51154;-52
2022/05/28 05:09:16;;;;;;;;;35.50;30.00;;;;;;;;5101318;27;51123;-48
2022/05/28 05:12:01;;;;;;;;;35.50;28.75;;;;;;;;5085346;27;51028;-49
2022/05/28 05:14:45;;;;;;;;;32.50;27.75;;;;;;;;5101036;27;51186;-48
2022/05/28 05:17:29;;;;;;;;;36.25;32.00;;;;;;;;5101090;27;51092;-50
2022/05/28 05:20:15;;;;;;;;;38.25;33.25;;;;;;;;5101096;27;51432;-52
2022/05/28 05:23:00;;;;;;;;;37.00;31.75;;;;;;;;5101606;27;50997;-49
2022/05/28 05:25:44;;;;;;;;;44.00;34.00;;;;;;;;5100800;27;51357;-49
2022/05/28 05:28:28;;;;;;;;;39.25;32.00;;;;;;;;5100678;27;51700;-52
2022/05/28 05:31:13;;;;;;;;;37.00;31.50;;;;;;;;5100479;27;51349;-53
2022/05/28 05:33:57;;;;;;;;;34.25;30.25;;;;;;;;5100843;27;51032;-52
2022/05/28 05:36:41;;;;;;;;;34.25;30.25;;;;;;;;5099793;27;51557;-50
2022/05/28 05:39:26;;;;;;;;;35.00;31.00;;;;;;;;5105780;27;51154;-51
2022/05/28 05:42:10;;;;;;;;;39.50;32.50;;;;;;;;5107743;27;51090;-55
2022/05/28 05:44:55;;;;;;;;;35.75;30.75;;;;;;;;5103926;27;51186;-54
2022/05/28 05:47:39;;;;;;;;;38.25;33.50;;;;;;;;5085169;27;51205;-55
2022/05/28 05:50:23;;;;;;;;;43.25;35.75;;;;;;;;5103274;27;51078;-57
2022/05/28 05:53:08;;;;;;;;;44.75;35.50;;;;;;;;5105473;27;51664;-53
2022/05/28 05:55:52;;;;;;;;;49.00;36.75;;;;;;;;5105045;27;51457;-52
2022/05/28 05:58:37;;;;;;;;;45.00;35.50;;;;;;;;5103288;27;51117;-56
2022/05/28 06:01:21;;;;;;;;;44.75;35.75;;;;;;;;5099886;27;51470;-54
2022/05/28 06:04:05;;;;;;;;;53.00;41.00;;;;;;;;5100188;27;51235;-55
2022/05/28 06:06:50;;;;;;;;;49.25;39.50;;;;;;;;5100058;27;51740;-54
2022/05/28 06:09:35;;;;;;;;;53.75;43.00;;;;;;;;5099803;27;51105;-57
2022/05/28 06:12:19;;;;;;;;;57.75;46.50;;;;;;;;5100313;27;51053;-53
2022/05/28 06:15:04;;;;;;;;;62.25;49.25;;;;;;;;5099837;27;51362;-53
2022/05/28 06:17:48;;;;;;;;;60.75;49.25;;;;;;;;5096775;27;51570;-56
2022/05/28 06:20:34;;;;;;;;;66.00;51.25;;;;;;;;5100088;27;51151;-53
2022/05/28 06:23:19;;;;;;;;;71.00;56.25;;;;;;;;5100320;27;51118;-54
2022/05/28 06:26:04;;;;;;;;;99.75;89.75;;;;;;;;5099528;27;50955;-56
2022/05/28 06:28:48;;;;;;;;;72.75;62.00;;;;;;;;5099268;27;51081;-55
2022/05/28 06:31:33;;;;;;;;;62.00;47.50;;;;;;;;5099537;27;51200;-52
2022/05/28 06:34:18;;;;;;;;;60.50;46.75;;;;;;;;5099155;27;51269;-57
2022/05/28 06:37:06;;;;;;;;;61.25;46.00;;;;;;;;5082781;27;51071;-54
2022/05/28 06:39:50;;;;;;;;;54.00;43.00;;;;;;;;5093390;27;51474;-54
2022/05/28 06:42:35;;;;;;;;;59.25;44.00;;;;;;;;5099521;27;51118;-54
2022/05/28 06:45:19;;;;;;;;;49.50;39.50;;;;;;;;5099020;27;51075;-55
2022/05/28 06:48:04;;;;;;;;;54.00;40.25;;;;;;;;5099192;27;51342;-54
2022/05/28 06:51:03;;;;;;;;;48.75;38.75;;;;;;;;5099315;27;51477;-55
2022/05/28 06:53:48;;;;;;;;;49.00;36.75;;;;;;;;5099096;27;51176;-57
2022/05/28 06:56:32;;;;;;;;;49.25;37.25;;;;;;;;5098920;27;51582;-53
2022/05/28 06:59:17;;;;;;;;;38.00;30.75;;;;;;;;5100362;27;51192;-53
2022/05/28 07:02:01;;;;;;;;;40.25;32.75;;;;;;;;5103483;27;51097;-53
2022/05/28 07:04:46;;;;;;;;;35.50;29.00;;;;;;;;5102321;27;51292;-54
2022/05/28 07:07:30;;;;;;;;;35.50;29.50;;;;;;;;5102642;27;51033;-53
2022/05/28 07:10:14;;;;;;;;;35.75;29.75;;;;;;;;5103001;27;51155;-54
2022/05/28 07:12:59;;;;;;;;;35.50;31.00;;;;;;;;5103494;27;50976;-54
2022/05/28 07:15:43;;;;;;;;;33.50;29.00;;;;;;;;5096641;27;51029;-56
2022/05/28 07:18:28;;;;;;;;;32.75;27.75;;;;;;;;5100683;27;51081;-55
2022/05/28 07:21:13;;;;;;;;;37.75;31.00;;;;;;;;5103356;27;51160;-56
2022/05/28 07:23:57;;;;;;;;;42.75;34.00;;;;;;;;5102738;27;51136;-56
2022/05/28 07:26:41;;;;;;;;;36.33;29.00;;;;;;;;5102601;27;51195;-56
2022/05/28 07:29:26;;;;;;;;;36.00;30.00;;;;;;;;5102338;27;51099;-55
2022/05/28 07:32:10;;;;;;;;;35.50;28.00;;;;;;;;5102738;27;51549;-53
2022/05/28 07:34:58;;;;;;;;;27.75;26.75;;;;;;;;5102598;27;51137;-54
2022/05/28 07:37:42;;;;;;;;;21.75;21.50;;;;;;;;5102989;27;51105;-56
2022/05/28 07:40:26;;;;;;;;;29.00;27.00;;;;;;;;5102190;27;51486;-56
2022/05/28 07:43:12;;;;;;;;;25.00;16.25;;;;;;;;5102583;27;51466;-52
2022/05/28 07:45:56;;;;;;;;;17.00;13.50;;;;;;;;5101802;27;51383;-54
2022/05/28 07:48:41;;;;;;;;;15.00;14.00;;;;;;;;5101982;27;51459;-55
2022/05/28 07:51:26;;;;;;;;;14.75;14.25;;;;;;;;5101461;27;51068;-54
2022/05/28 07:54:10;;;;;;;;;15.50;15.50;;;;;;;;5100924;27;51054;-52
2022/05/28 07:56:55;;;;;;;;;15.75;13.50;;;;;;;;5101779;27;51077;-56
2022/05/28 07:59:39;;;;;;;;;15.00;13.00;;;;;;;;5099386;27;51049;-55
2022/05/28 08:02:23;;;;;;;;;14.75;14.00;;;;;;;;5102128;27;51156;-56
2022/05/28 08:05:08;;;;;;;;;18.50;13.75;;;;;;;;5098917;27;51334;-55
2022/05/28 08:07:52;;;;;;;;;15.25;13.00;;;;;;;;5101147;27;51167;-54
2022/05/28 08:10:37;;;;;;;;;27.00;17.50;;;;;;;;5101910;27;51154;-55
2022/05/28 08:13:22;;;;;;;;;19.75;18.75;;;;;;;;5101560;27;51415;-57
2022/05/28 08:16:07;;;;;;;;;16.00;12.25;;;;;;;;5101972;27;51181;-52
2022/05/28 08:18:51;;;;;;;;;11.50;10.50;;;;;;;;5101249;27;51119;-57
2022/05/28 08:24:38;;;;;;;;;19.00;16.00;;;;;;;;5097622;27;51152;-56
2022/05/28 08:27:23;;;;;;;;;14.50;14.50;;;;;;;;5100885;27;51061;-56
2022/05/28 08:30:08;;;;;;;;;16.25;16.25;;;;;;;;5098107;27;51365;-53
2022/05/28 08:32:52;;;;;;;;;21.50;15.00;;;;;;;;5098940;27;51035;-55
2022/05/28 08:35:37;;;;;;;;;16.25;13.50;;;;;;;;5101525;27;51045;-54
2022/05/28 08:38:22;;;;;;;;;19.00;18.25;;;;;;;;5100302;27;51033;-55
2022/05/28 08:41:12;;;;;;;;;16.75;16.25;;;;;;;;5085708;27;51279;-54
2022/05/28 08:44:08;;;;;;;;;20.75;18.00;;;;;;;;5085211;27;51146;-56
2022/05/28 08:47:06;;;;;;;;;21.00;17.75;;;;;;;;5085265;27;51411;-54
2022/05/28 08:49:51;;;;;;;;;17.50;13.50;;;;;;;;5082665;27;51307;-53
2022/05/28 08:52:46;;;;;;;;;16.75;15.75;;;;;;;;5101058;27;51031;-53
2022/05/28 08:55:32;;;;;;;;;17.25;15.25;;;;;;;;5100569;27;51072;-55
2022/05/28 08:58:22;;;;;;;;;19.75;16.25;;;;;;;;5079992;27;51155;-54
2022/05/28 09:01:10;;;;;;;;;17.75;14.50;;;;;;;;5095019;27;51040;-54
2022/05/28 09:03:58;;;;;;;;;14.00;13.00;;;;;;;;5098361;27;51121;-52
2022/05/28 09:06:49;;;;;;;;;13.25;9.75;;;;;;;;5098886;27;51225;-55
2022/05/28 09:09:37;;;;;;;;;16.75;10.00;;;;;;;;5097817;27;51146;-55
2022/05/28 09:12:27;;;;;;;;;10.00;6.75;;;;;;;;5074862;27;51180;-55
2022/05/28 09:15:12;;;;;;;;;13.75;10.25;;;;;;;;5098039;27;51159;-54
2022/05/28 09:17:56;;;;;;;;;13.75;8.50;;;;;;;;5083276;27;51268;-55
2022/05/28 09:20:44;;;;;;;;;16.00;12.25;;;;;;;;5099524;27;51347;-56
2022/05/28 09:23:35;;;;;;;;;8.75;8.75;;;;;;;;5100308;27;51175;-55
2022/05/28 09:26:31;;;;;;;;;6.25;6.25;;;;;;;;5100563;27;51624;-56
2022/05/28 09:29:33;;;;;;;;;19.00;15.00;;;;;;;;5100300;27;51003;-53
2022/05/28 09:32:17;;;;;;;;;5.50;4.75;;;;;;;;5100562;27;51007;-52
2022/05/28 09:35:09;;;;;;;;;9.25;5.75;;;;;;;;5100264;27;51083;-55
2022/05/28 09:38:12;;;;;;;;;7.00;3.25;;;;;;;;5100351;27;51495;-55
2022/05/28 09:41:16;;;;;;;;;6.50;4.75;;;;;;;;5099133;27;51083;-53
2022/05/28 09:44:09;;;;;;;;;10.50;9.25;;;;;;;;5085334;27;51137;-54
2022/05/28 09:47:04;;;;;;;;;8.75;6.75;;;;;;;;5083384;27;51484;-54
2022/05/28 09:49:50;;;;;;;;;5.00;5.00;;;;;;;;5100299;27;51124;-57
2022/05/28 09:54:16;;;;;;;;;14.75;7.75;;;;;;;;5099393;27;51389;-53
2022/05/28 09:55:38;;;;;;;;;18.50;17.50;;;;;;;;5093699;27;51159;-53
2022/05/28 09:58:24;;;;;;;;;14.75;12.75;;;;;;;;5098571;27;51157;-55
2022/05/28 10:01:17;;;;;;;;;12.00;9.25;;;;;;;;5098645;27;51086;-57
2022/05/28 10:07:06;;;;;;;;;64.75;48.25;;;;;;;;5099367;27;51140;-56
2022/05/28 10:09:53;;;;;;;;;24.25;23.50;;;;;;;;5100219;27;51077;-53
2022/05/28 10:12:37;;;;;;;;;25.00;17.50;;;;;;;;5098752;27;51217;-52
2022/05/28 10:15:29;;;;;;;;;7.00;5.75;;;;;;;;5099820;27;51177;-56
2022/05/28 10:18:16;;;;;;;;;18.25;15.00;;;;;;;;5099737;27;51168;-54
2022/05/28 10:21:06;;;;;;;;;6.75;5.50;;;;;;;;5099937;27;51269;-55
2022/05/28 10:23:52;;;;;;;;;12.25;11.25;;;;;;;;5098828;27;51096;-56
2022/05/28 10:26:45;;;;;;;;;22.75;18.50;;;;;;;;5084246;27;51207;-54
2022/05/28 10:29:41;;;;;;;;;11.25;6.00;;;;;;;;5099808;27;51040;-56
2022/05/28 10:32:28;;;;;;;;;8.50;7.00;;;;;;;;5099337;27;51073;-56
2022/05/28 10:35:19;;;;;;;;;5.00;2.50;;;;;;;;5103628;27;51116;-54
2022/05/28 10:38:14;;;;;;;;;4.00;4.00;;;;;;;;5100736;27;51163;-55
2022/05/28 10:41:00;;;;;;;;;5.25;5.25;;;;;;;;5103519;27;51300;-55
2022/05/28 10:43:44;;;;;;;;;9.00;9.00;;;;;;;;5087686;27;51425;-54
2022/05/28 10:46:47;;;;;;;;;10.00;6.00;;;;;;;;5103095;27;51172;-55
2022/05/28 10:49:39;;;;;;;;;4.00;4.00;;;;;;;;5102581;27;51640;-52
2022/05/28 10:52:23;;;;;;;;;7.25;5.00;;;;;;;;5103673;27;51132;-54
2022/05/28 10:55:10;;;;;;;;;3.75;2.75;;;;;;;;5096957;27;51145;-55
2022/05/28 10:58:13;;;;;;;;;6.00;3.00;;;;;;;;5095527;27;51194;-53
2022/05/28 11:00:57;;;;;;;;;3.25;2.00;;;;;;;;5103864;27;51082;-56
2022/05/28 11:03:44;;;;;;;;;3.75;2.75;;;;;;;;5102591;27;51105;-54
2022/05/28 11:06:45;;;;;;;;;3.75;3.75;;;;;;;;5103496;27;51426;-54
2022/05/28 11:09:39;;;;;;;;;5.75;4.25;;;;;;;;5103343;27;51174;-52
2022/05/28 11:12:37;;;;;;;;;6.00;4.25;;;;;;;;5098963;27;51036;-53
2022/05/28 11:15:30;;;;;;;;;12.50;9.75;;;;;;;;5097221;27;51106;-52
2022/05/28 11:18:17;;;;;;;;;9.25;6.25;;;;;;;;5102963;27;51385;-53
2022/05/28 11:21:12;;;;;;;;;6.00;5.00;;;;;;;;5102692;27;51741;-56
2022/05/28 11:23:59;;;;;;;;;4.00;3.00;;;;;;;;5103072;27;51397;-54
2022/05/28 11:27:01;;;;;;;;;4.75;3.75;;;;;;;;5103033;27;51030;-53
2022/05/28 11:30:05;;;;;;;;;6.50;3.75;;;;;;;;5098271;27;51141;-57
2022/05/28 11:33:07;;;;;;;;;7.25;3.50;;;;;;;;5102941;27;51018;-53
2022/05/28 11:35:58;;;;;;;;;8.00;7.75;;;;;;;;5102164;27;51053;-55
2022/05/28 11:38:42;;;;;;;;;1.75;1.75;;;;;;;;5087289;27;51030;-52
2022/05/28 11:41:36;;;;;;;;;5.00;3.00;;;;;;;;5102176;27;51337;-55
2022/05/28 11:44:28;;;;;;;;;5.50;4.50;;;;;;;;5100951;27;51164;-56
2022/05/28 11:47:15;;;;;;;;;3.00;2.00;;;;;;;;5101641;27;51327;-55
2022/05/28 11:53:47;;;;;;;;;4.50;3.00;;;;;;;;5072284;27;51151;-54
2022/05/28 11:56:31;;;;;;;;;7.75;4.50;;;;;;;;5101391;27;51467;-53
2022/05/28 11:59:23;;;;;;;;;7.25;2.75;;;;;;;;5102344;27;51224;-53
2022/05/28 12:02:10;;;;;;;;;6.75;3.25;;;;;;;;5102189;27;51134;-50
2022/05/28 12:04:55;;;;;;;;;6.25;6.25;;;;;;;;5102136;27;51140;-52
2022/05/28 12:07:40;;;;;;;;;6.00;5.00;;;;;;;;5101241;27;51244;-56
2022/05/28 12:10:32;;;;;;;;;5.00;4.00;;;;;;;;5101862;27;51023;-49
2022/05/28 12:13:32;;;;;;;;;6.75;3.75;;;;;;;;5102019;27;51039;-55
2022/05/28 12:16:22;;;;;;;;;3.00;2.50;;;;;;;;5101547;27;51378;-52
2022/05/28 12:19:13;;;;;;;;;4.75;3.50;;;;;;;;5102081;27;51117;-52
2022/05/28 12:22:27;;;;;;;;;5.00;3.00;;;;;;;;5092774;27;51565;-56
2022/05/28 12:25:11;;;;;;;;;6.25;4.00;;;;;;;;5090285;27;51169;-53
2022/05/28 12:27:55;;;;;;;;;5.75;2.25;;;;;;;;5100930;27;51054;-55
2022/05/28 12:30:42;;;;;;;;;2.25;2.25;;;;;;;;5101281;27;51151;-53
2022/05/28 12:33:28;;;;;;;;;2.50;1.75;;;;;;;;5085727;27;51524;-52
2022/05/28 12:36:27;;;;;;;;;5.00;3.75;;;;;;;;5101266;27;51148;-57
2022/05/28 12:39:14;;;;;;;;;9.25;3.00;;;;;;;;5100692;27;51412;-52
2022/05/28 12:41:59;;;;;;;;;4.50;2.50;;;;;;;;5100454;27;51203;-54
2022/05/28 12:44:48;;;;;;;;;5.00;3.00;;;;;;;;5098427;27;51701;-55
2022/05/28 12:47:34;;;;;;;;;3.25;1.75;;;;;;;;5100582;27;51436;-53
2022/05/28 12:50:36;;;;;;;;;5.75;3.00;;;;;;;;5100366;27;51421;-55
2022/05/28 12:53:21;;;;;;;;;3.25;3.25;;;;;;;;5102337;27;51096;-55
2022/05/28 12:56:07;;;;;;;;;1.50;1.25;;;;;;;;5099833;27;51106;-55
2022/05/28 12:58:52;;;;;;;;;6.50;3.75;;;;;;;;5099869;27;51210;-53
2022/05/28 13:01:38;;;;;;;;;6.00;2.25;;;;;;;;5100277;27;51258;-51
2022/05/28 13:04:23;;;;;;;;;2.75;2.75;;;;;;;;5100612;27;51444;-55
2022/05/28 13:07:20;;;;;;;;;5.00;3.25;;;;;;;;5099411;27;51109;-53
2022/05/28 13:10:06;;;;;;;;;4.50;1.75;;;;;;;;5100218;27;51105;-54
2022/05/28 13:13:05;;;;;;;;;4.50;2.00;;;;;;;;5100671;27;51452;-54
2022/05/28 13:16:02;;;;;;;;;4.00;4.00;;;;;;;;5100343;27;51173;-53
2022/05/28 13:18:52;;;;;;;;;5.75;2.00;;;;;;;;5084814;27;51098;-52
2022/05/28 13:21:56;;;;;;;;;1.50;1.50;;;;;;;;5100215;27;51353;-54
2022/05/28 13:25:01;;;;;;;;;2.25;2.00;;;;;;;;5100066;27;51083;-53
2022/05/28 13:27:45;;;;;;;;;4.25;2.75;;;;;;;;5097879;27;51155;-53
2022/05/28 13:30:45;;;;;;;;;1.25;1.00;;;;;;;;5099729;27;51290;-54
2022/05/28 13:33:34;;;;;;;;;7.50;2.25;;;;;;;;5099624;27;51022;-53
2022/05/28 13:36:20;;;;;;;;;4.00;3.50;;;;;;;;5071657;27;51164;-54
2022/05/28 13:39:06;;;;;;;;;6.50;3.25;;;;;;;;5079279;27;51573;-50
2022/05/28 13:41:52;;;;;;;;;6.25;3.25;;;;;;;;5095847;27;51494;-51
2022/05/28 13:44:45;;;;;;;;;6.75;3.00;;;;;;;;5100066;27;51228;-52
2022/05/28 13:48:00;;;;;;;;;3.25;2.00;;;;;;;;5080458;27;51177;-53
2022/05/28 13:50:44;;;;;;;;;3.25;2.00;;;;;;;;5097917;27;51105;-55
2022/05/28 13:53:31;;;;;;;;;6.25;3.00;;;;;;;;5099811;27;51150;-52
2022/05/28 13:56:27;;;;;;;;;2.00;2.00;;;;;;;;5100177;27;51105;-52
2022/05/28 13:59:37;;;;;;;;;5.25;2.50;;;;;;;;5092238;27;51129;-54
2022/05/28 14:02:24;;;;;;;;;2.75;1.75;;;;;;;;5068980;27;51021;-53
2022/05/28 14:05:19;;;;;;;;;4.00;2.50;;;;;;;;5094278;27;51436;-55
2022/05/28 14:08:23;;;;;;;;;2.50;1.25;;;;;;;;5078507;27;51300;-53
2022/05/28 14:11:10;;;;;;;;;4.00;2.25;;;;;;;;5097856;27;51102;-52
2022/05/28 14:14:03;;;;;;;;;5.25;3.25;;;;;;;;5099690;27;51247;-53
2022/05/28 14:16:57;;;;;;;;;4.75;1.25;;;;;;;;5098963;27;51280;-55
2022/05/28 14:19:47;;;;;;;;;4.75;4.25;;;;;;;;5081304;27;51126;-55
2022/05/28 14:22:41;;;;;;;;;3.50;3.00;;;;;;;;5078487;27;51080;-54
2022/05/28 14:25:33;;;;;;;;;3.00;2.50;;;;;;;;5074572;27;51055;-53
2022/05/28 14:28:20;;;;;;;;;6.00;3.25;;;;;;;;5078790;28;51187;-54
2022/05/28 14:31:04;;;;;;;;;6.25;2.75;;;;;;;;5078688;28;51357;-55
2022/05/28 14:33:53;;;;;;;;;2.00;1.50;;;;;;;;5078302;28;51482;-54
2022/05/28 14:36:47;;;;;;;;;2.50;2.50;;;;;;;;5078596;28;51113;-56
2022/05/28 14:39:53;;;;;;;;;4.25;2.75;;;;;;;;5075776;28;51041;-55
2022/05/28 14:42:43;;;;;;;;;2.50;2.50;;;;;;;;5078066;28;51370;-56
2022/05/28 14:45:33;;;;;;;;;8.00;5.00;;;;;;;;5078866;28;51187;-56
2022/05/28 14:48:24;;;;;;;;;4.25;2.75;;;;;;;;5078972;28;51341;-50
2022/05/28 14:51:20;;;;;;;;;6.00;3.00;;;;;;;;5078548;28;51339;-55
2022/05/28 14:54:19;;;;;;;;;3.50;3.25;;;;;;;;5078621;28;51462;-54
2022/05/28 14:57:33;;;;;;;;;4.00;4.00;;;;;;;;5077449;28;51285;-53
2022/05/28 15:00:29;;;;;;;;;7.50;6.00;;;;;;;;5077767;28;51391;-52
2022/05/28 15:03:32;;;;;;;;;9.50;3.75;;;;;;;;5077953;28;51038;-54
2022/05/28 15:06:27;;;;;;;;;10.00;6.00;;;;;;;;5078298;28;51110;-53
2022/05/28 15:09:17;;;;;;;;;2.50;2.50;;;;;;;;5076359;28;51428;-54
2022/05/28 15:12:07;;;;;;;;;6.25;4.25;;;;;;;;5076861;28;51039;-55
2022/05/28 15:14:52;;;;;;;;;8.50;5.00;;;;;;;;5075524;28;51411;-56
2022/05/28 15:17:40;;;;;;;;;5.00;3.00;;;;;;;;5078710;28;51120;-53
2022/05/28 15:20:58;;;;;;;;;6.00;3.75;;;;;;;;5080704;27;50996;-56
2022/05/28 15:23:44;;;;;;;;;5.00;3.00;;;;;;;;5081406;27;51439;-54
2022/05/28 15:26:29;;;;;;;;;6.00;3.00;;;;;;;;5082133;27;51002;-52
2022/05/28 15:29:13;;;;;;;;;6.75;4.00;;;;;;;;5081463;27;51061;-54
2022/05/28 15:32:08;;;;;;;;;4.00;3.00;;;;;;;;5082421;27;51108;-55
2022/05/28 15:35:01;;;;;;;;;5.50;4.25;;;;;;;;5077383;27;51350;-52
2022/05/28 15:37:52;;;;;;;;;5.50;4.00;;;;;;;;5081084;27;51148;-54
2022/05/28 15:40:38;;;;;;;;;6.00;3.00;;;;;;;;5081397;27;51341;-56
2022/05/28 15:43:24;;;;;;;;;4.75;4.25;;;;;;;;5081699;27;51128;-54
2022/05/28 15:46:10;;;;;;;;;4.25;2.50;;;;;;;;5081732;27;51503;-53
2022/05/28 15:49:22;;;;;;;;;6.25;4.75;;;;;;;;5080839;27;51356;-53
2022/05/28 15:52:29;;;;;;;;;4.75;3.25;;;;;;;;5081518;27;51128;-54
2022/05/28 15:55:14;;;;;;;;;3.00;3.00;;;;;;;;5080523;27;51231;-51
2022/05/28 15:58:03;;;;;;;;;5.00;3.00;;;;;;;;5081676;27;51185;-55
2022/05/28 16:00:48;;;;;;;;;4.25;3.75;;;;;;;;5081204;27;51469;-55
2022/05/28 16:03:56;;;;;;;;;4.25;4.25;;;;;;;;5080590;27;51038;-54
2022/05/28 16:06:48;;;;;;;;;6.00;3.25;;;;;;;;5077325;27;51475;-55
2022/05/28 16:09:35;;;;;;;;;2.50;2.50;;;;;;;;5079378;27;51411;-54
2022/05/28 16:12:29;;;;;;;;;6.25;3.75;;;;;;;;5076965;27;51023;-53
2022/05/28 16:15:15;;;;;;;;;4.50;4.25;;;;;;;;5080191;27;51157;-55
2022/05/28 16:17:59;;;;;;;;;7.25;5.00;;;;;;;;5076341;27;52132;-53
2022/05/28 16:20:43;;;;;;;;;7.50;4.00;;;;;;;;5080224;27;51133;-52
2022/05/28 16:23:30;;;;;;;;;4.00;3.25;;;;;;;;5073413;27;51212;-55
2022/05/28 16:26:18;;;;;;;;;4.00;2.50;;;;;;;;5071041;27;51160;-54
2022/05/28 16:29:14;;;;;;;;;4.25;3.25;;;;;;;;5079310;27;51037;-51
2022/05/28 16:31:59;;;;;;;;;8.50;5.25;;;;;;;;5080678;27;51301;-52
2022/05/28 16:34:46;;;;;;;;;6.50;2.75;;;;;;;;5080955;27;51284;-55
2022/05/28 16:37:30;;;;;;;;;4.00;3.50;;;;;;;;5081289;27;51137;-52
2022/05/28 16:40:16;;;;;;;;;2.75;2.75;;;;;;;;5079059;27;51390;-53
2022/05/28 16:43:01;;;;;;;;;3.75;3.75;;;;;;;;5080110;27;51128;-53
2022/05/28 16:45:47;;;;;;;;;3.75;2.00;;;;;;;;5080309;27;51195;-55